sensor_id;sensor_type;location;lat;lon;timestamp;temperature;humidity
41256;DHT22;26989;45.524;10.938;2022-08-20T00:01:09;19.20;99.90
41256;DHT22;26989;45.524;10.938;2022-08-20T00:03:38;19.10;99.90
41256;DHT22;26989;45.524;10.938;2022-08-20T00:06:13;19.10;99.90
41256;DHT22;26989;45.524;10.938;2022-08-20T00:08:40;19.10;99.90
41256;DHT22;26989;45.524;10.938;2022-08-20T00:11:09;19.10;99.90
41256;DHT22;26989;45.524;10.938;2022-08-20T00:13:45;19.10;99.90
41256;DHT22;26989;45.524;10.938;2022-08-20T00:16:14;19.00;99.90
41256;DHT22;26989;45.524;10.938;2022-08-20T00:18:42;19.20;99.90
41256;DHT22;26989;45.524;10.938;2022-08-20T00:21:12;19.20;99.90
41256;DHT22;26989;45.524;10.938;2022-08-20T00:23:48;19.20;99.90
41256;DHT22;26989;45.524;10.938;2022-08-20T00:26:17;19.30;99.90
41256;DHT22;26989;45.524;10.938;2022-08-20T00:28:44;19.30;99.90
41256;DHT22;26989;45.524;10.938;2022-08-20T00:31:13;19.40;99.90
41256;DHT22;26989;45.524;10.938;2022-08-20T00:33:41;19.40;99.90
41256;DHT22;26989;45.524;10.938;2022-08-20T00:36:08;19.30;99.90
41256;DHT22;26989;45.524;10.938;2022-08-20T00:38:40;19.20;99.90
41256;DHT22;26989;45.524;10.938;2022-08-20T00:41:10;19.10;99.90
41256;DHT22;26989;45.524;10.938;2022-08-20T00:46:19;19.10;99.90
41256;DHT22;26989;45.524;10.938;2022-08-20T00:48:49;19.00;99.90
41256;DHT22;26989;45.524;10.938;2022-08-20T00:54:10;19.00;99.90
41256;DHT22;26989;45.524;10.938;2022-08-20T00:56:40;19.10;99.90
41256;DHT22;26989;45.524;10.938;2022-08-20T00:59:13;19.30;99.90
41256;DHT22;26989;45.524;10.938;2022-08-20T01:01:42;19.30;99.90
41256;DHT22;26989;45.524;10.938;2022-08-20T01:04:24;19.30;99.90
41256;DHT22;26989;45.524;10.938;2022-08-20T01:06:52;19.40;99.90
41256;DHT22;26989;45.524;10.938;2022-08-20T01:09:19;19.50;99.90
41256;DHT22;26989;45.524;10.938;2022-08-20T01:12:06;19.40;99.90
41256;DHT22;26989;45.524;10.938;2022-08-20T01:14:35;19.30;99.90
41256;DHT22;26989;45.524;10.938;2022-08-20T01:17:15;19.30;99.90
41256;DHT22;26989;45.524;10.938;2022-08-20T01:19:50;19.40;99.90
41256;DHT22;26989;45.524;10.938;2022-08-20T01:22:37;19.40;99.90
41256;DHT22;26989;45.524;10.938;2022-08-20T01:28:03;19.50;99.90
41256;DHT22;26989;45.524;10.938;2022-08-20T01:30:30;19.50;99.90
41256;DHT22;26989;45.524;10.938;2022-08-20T01:32:58;19.40;99.90
41256;DHT22;26989;45.524;10.938;2022-08-20T01:35:25;19.30;99.90
41256;DHT22;26989;45.524;10.938;2022-08-20T01:37:53;19.30;99.90
41256;DHT22;26989;45.524;10.938;2022-08-20T01:43:13;19.30;99.90
41256;DHT22;26989;45.524;10.938;2022-08-20T01:45:42;19.30;99.90
41256;DHT22;26989;45.524;10.938;2022-08-20T01:48:12;19.30;99.90
41256;DHT22;26989;45.524;10.938;2022-08-20T01:50:45;19.30;99.90
41256;DHT22;26989;45.524;10.938;2022-08-20T01:53:25;19.30;99.90
41256;DHT22;26989;45.524;10.938;2022-08-20T01:55:54;19.00;99.90
41256;DHT22;26989;45.524;10.938;2022-08-20T01:58:21;18.90;99.90
41256;DHT22;26989;45.524;10.938;2022-08-20T02:00:48;18.70;99.90
41256;DHT22;26989;45.524;10.938;2022-08-20T02:03:15;18.60;99.90
41256;DHT22;26989;45.524;10.938;2022-08-20T02:05:41;18.50;99.90
41256;DHT22;26989;45.524;10.938;2022-08-20T02:08:08;18.60;99.90
41256;DHT22;26989;45.524;10.938;2022-08-20T02:10:35;18.60;99.90
41256;DHT22;26989;45.524;10.938;2022-08-20T02:13:03;18.70;99.90
41256;DHT22;26989;45.524;10.938;2022-08-20T02:15:31;18.80;99.90
41256;DHT22;26989;45.524;10.938;2022-08-20T02:18:07;18.70;99.90
41256;DHT22;26989;45.524;10.938;2022-08-20T02:20:34;18.70;99.90
41256;DHT22;26989;45.524;10.938;2022-08-20T02:23:02;18.70;99.90
41256;DHT22;26989;45.524;10.938;2022-08-20T02:25:31;18.70;99.90
41256;DHT22;26989;45.524;10.938;2022-08-20T02:28:01;18.70;99.90
41256;DHT22;26989;45.524;10.938;2022-08-20T02:30:31;18.80;99.90
41256;DHT22;26989;45.524;10.938;2022-08-20T02:33:03;18.80;99.90
41256;DHT22;26989;45.524;10.938;2022-08-20T02:35:31;18.90;99.90
41256;DHT22;26989;45.524;10.938;2022-08-20T02:37:59;18.80;99.90
41256;DHT22;26989;45.524;10.938;2022-08-20T02:40:27;18.80;99.90
41256;DHT22;26989;45.524;10.938;2022-08-20T02:43:00;19.00;99.90
41256;DHT22;26989;45.524;10.938;2022-08-20T02:45:29;19.00;99.90
41256;DHT22;26989;45.524;10.938;2022-08-20T02:47:56;18.80;99.90
41256;DHT22;26989;45.524;10.938;2022-08-20T02:50:25;18.80;99.90
41256;DHT22;26989;45.524;10.938;2022-08-20T02:52:52;18.80;99.90
41256;DHT22;26989;45.524;10.938;2022-08-20T02:55:20;18.80;99.90
41256;DHT22;26989;45.524;10.938;2022-08-20T02:57:55;18.80;99.90
41256;DHT22;26989;45.524;10.938;2022-08-20T03:00:25;18.70;99.90
41256;DHT22;26989;45.524;10.938;2022-08-20T03:02:53;18.80;99.90
41256;DHT22;26989;45.524;10.938;2022-08-20T03:05:20;19.10;99.90
41256;DHT22;26989;45.524;10.938;2022-08-20T03:07:49;19.10;99.90
41256;DHT22;26989;45.524;10.938;2022-08-20T03:10:24;19.20;99.90
41256;DHT22;26989;45.524;10.938;2022-08-20T03:12:51;19.20;99.90
41256;DHT22;26989;45.524;10.938;2022-08-20T03:15:19;19.10;99.90
41256;DHT22;26989;45.524;10.938;2022-08-20T03:17:46;19.30;99.90
41256;DHT22;26989;45.524;10.938;2022-08-20T03:20:13;19.60;99.90
41256;DHT22;26989;45.524;10.938;2022-08-20T03:22:40;19.80;99.90
41256;DHT22;26989;45.524;10.938;2022-08-20T03:25:08;19.80;99.90
41256;DHT22;26989;45.524;10.938;2022-08-20T03:27:35;19.60;99.90
41256;DHT22;26989;45.524;10.938;2022-08-20T03:30:05;19.50;99.90
41256;DHT22;26989;45.524;10.938;2022-08-20T03:32:32;19.30;99.90
41256;DHT22;26989;45.524;10.938;2022-08-20T03:34:59;19.20;99.90
41256;DHT22;26989;45.524;10.938;2022-08-20T03:37:32;19.10;99.90
41256;DHT22;26989;45.524;10.938;2022-08-20T03:40:00;19.10;99.90
41256;DHT22;26989;45.524;10.938;2022-08-20T03:42:29;19.20;99.90
41256;DHT22;26989;45.524;10.938;2022-08-20T03:44:56;19.20;99.90
41256;DHT22;26989;45.524;10.938;2022-08-20T03:47:24;19.40;99.90
41256;DHT22;26989;45.524;10.938;2022-08-20T03:49:51;19.30;99.90
41256;DHT22;26989;45.524;10.938;2022-08-20T03:52:18;19.30;99.90
41256;DHT22;26989;45.524;10.938;2022-08-20T03:54:45;19.30;99.90
41256;DHT22;26989;45.524;10.938;2022-08-20T03:57:13;19.40;99.90
41256;DHT22;26989;45.524;10.938;2022-08-20T03:59:42;19.30;99.90
41256;DHT22;26989;45.524;10.938;2022-08-20T04:02:10;19.30;99.90
41256;DHT22;26989;45.524;10.938;2022-08-20T04:04:39;19.20;99.90
41256;DHT22;26989;45.524;10.938;2022-08-20T04:07:15;19.10;99.90
41256;DHT22;26989;45.524;10.938;2022-08-20T04:09:42;19.10;99.90
41256;DHT22;26989;45.524;10.938;2022-08-20T04:12:09;19.10;99.90
41256;DHT22;26989;45.524;10.938;2022-08-20T04:14:40;19.10;99.90
41256;DHT22;26989;45.524;10.938;2022-08-20T04:17:09;19.00;99.90
41256;DHT22;26989;45.524;10.938;2022-08-20T04:19:38;19.00;99.90
41256;DHT22;26989;45.524;10.938;2022-08-20T04:22:05;19.10;99.90
41256;DHT22;26989;45.524;10.938;2022-08-20T04:24:34;19.10;99.90
41256;DHT22;26989;45.524;10.938;2022-08-20T04:27:01;19.20;99.90
41256;DHT22;26989;45.524;10.938;2022-08-20T04:29:29;19.30;99.90
41256;DHT22;26989;45.524;10.938;2022-08-20T04:31:59;19.20;99.90
41256;DHT22;26989;45.524;10.938;2022-08-20T04:34:28;19.20;99.90
41256;DHT22;26989;45.524;10.938;2022-08-20T04:36:55;19.10;99.90
41256;DHT22;26989;45.524;10.938;2022-08-20T04:39:22;19.20;99.90
41256;DHT22;26989;45.524;10.938;2022-08-20T04:41:49;19.30;99.90
41256;DHT22;26989;45.524;10.938;2022-08-20T04:44:16;19.40;99.90
41256;DHT22;26989;45.524;10.938;2022-08-20T04:46:43;19.30;99.90
41256;DHT22;26989;45.524;10.938;2022-08-20T04:49:10;19.30;99.90
41256;DHT22;26989;45.524;10.938;2022-08-20T04:51:37;19.30;99.90
41256;DHT22;26989;45.524;10.938;2022-08-20T04:54:05;19.50;99.90
41256;DHT22;26989;45.524;10.938;2022-08-20T04:56:34;19.60;99.90
41256;DHT22;26989;45.524;10.938;2022-08-20T04:59:05;19.50;99.90
41256;DHT22;26989;45.524;10.938;2022-08-20T05:01:33;19.50;99.90
41256;DHT22;26989;45.524;10.938;2022-08-20T05:04:00;19.60;99.90
41256;DHT22;26989;45.524;10.938;2022-08-20T05:06:29;19.60;99.90
41256;DHT22;26989;45.524;10.938;2022-08-20T05:08:58;19.40;99.90
41256;DHT22;26989;45.524;10.938;2022-08-20T05:11:27;19.30;99.90
41256;DHT22;26989;45.524;10.938;2022-08-20T05:14:03;19.50;99.90
41256;DHT22;26989;45.524;10.938;2022-08-20T05:16:31;20.30;99.90
41256;DHT22;26989;45.524;10.938;2022-08-20T05:19:04;19.90;99.90
41256;DHT22;26989;45.524;10.938;2022-08-20T05:21:31;19.70;99.90
41256;DHT22;26989;45.524;10.938;2022-08-20T05:23:58;21.00;99.90
41256;DHT22;26989;45.524;10.938;2022-08-20T05:26:25;21.70;99.90
41256;DHT22;26989;45.524;10.938;2022-08-20T05:28:52;21.70;99.90
41256;DHT22;26989;45.524;10.938;2022-08-20T05:31:28;22.30;99.90
41256;DHT22;26989;45.524;10.938;2022-08-20T05:34:10;22.80;99.90
41256;DHT22;26989;45.524;10.938;2022-08-20T05:36:40;23.60;99.90
41256;DHT22;26989;45.524;10.938;2022-08-20T05:39:08;21.90;99.90
41256;DHT22;26989;45.524;10.938;2022-08-20T05:41:36;21.20;99.90
41256;DHT22;26989;45.524;10.938;2022-08-20T05:44:05;21.00;99.90
41256;DHT22;26989;45.524;10.938;2022-08-20T05:46:37;20.80;99.90
41256;DHT22;26989;45.524;10.938;2022-08-20T05:49:08;20.40;99.90
41256;DHT22;26989;45.524;10.938;2022-08-20T05:51:36;20.30;99.90
41256;DHT22;26989;45.524;10.938;2022-08-20T05:54:04;21.00;99.90
41256;DHT22;26989;45.524;10.938;2022-08-20T05:56:32;24.90;99.90
41256;DHT22;26989;45.524;10.938;2022-08-20T05:59:00;22.90;99.90
41256;DHT22;26989;45.524;10.938;2022-08-20T06:01:31;22.10;99.90
41256;DHT22;26989;45.524;10.938;2022-08-20T06:03:58;22.00;99.90
41256;DHT22;26989;45.524;10.938;2022-08-20T06:06:44;22.40;99.90
41256;DHT22;26989;45.524;10.938;2022-08-20T06:09:17;21.80;99.90
41256;DHT22;26989;45.524;10.938;2022-08-20T06:12:05;20.80;99.90
41256;DHT22;26989;45.524;10.938;2022-08-20T06:14:35;21.80;99.90
41256;DHT22;26989;45.524;10.938;2022-08-20T06:17:13;21.40;99.90
41256;DHT22;26989;45.524;10.938;2022-08-20T06:19:42;22.30;99.90
41256;DHT22;26989;45.524;10.938;2022-08-20T06:22:10;22.00;99.90
41256;DHT22;26989;45.524;10.938;2022-08-20T06:24:53;21.00;99.90
41256;DHT22;26989;45.524;10.938;2022-08-20T06:27:20;21.40;99.90
41256;DHT22;26989;45.524;10.938;2022-08-20T06:29:47;20.80;99.90
41256;DHT22;26989;45.524;10.938;2022-08-20T06:32:14;23.30;99.90
41256;DHT22;26989;45.524;10.938;2022-08-20T06:34:41;25.40;99.90
41256;DHT22;26989;45.524;10.938;2022-08-20T06:37:27;26.10;99.90
41256;DHT22;26989;45.524;10.938;2022-08-20T06:40:13;26.40;99.70
41256;DHT22;26989;45.524;10.938;2022-08-20T06:42:40;26.70;99.30
41256;DHT22;26989;45.524;10.938;2022-08-20T06:45:17;25.90;99.50
41256;DHT22;26989;45.524;10.938;2022-08-20T06:47:45;23.80;99.90
41256;DHT22;26989;45.524;10.938;2022-08-20T06:50:17;26.20;99.10
41256;DHT22;26989;45.524;10.938;2022-08-20T06:52:44;25.40;98.40
41256;DHT22;26989;45.524;10.938;2022-08-20T06:55:19;24.00;99.90
41256;DHT22;26989;45.524;10.938;2022-08-20T06:57:51;23.40;99.90
41256;DHT22;26989;45.524;10.938;2022-08-20T07:00:21;23.50;99.90
41256;DHT22;26989;45.524;10.938;2022-08-20T07:02:47;23.50;99.90
41256;DHT22;26989;45.524;10.938;2022-08-20T07:05:14;23.80;99.90
41256;DHT22;26989;45.524;10.938;2022-08-20T07:07:46;23.90;99.90
41256;DHT22;26989;45.524;10.938;2022-08-20T07:10:18;24.20;99.90
41256;DHT22;26989;45.524;10.938;2022-08-20T07:12:46;24.50;99.90
41256;DHT22;26989;45.524;10.938;2022-08-20T07:15:14;24.80;99.90
41256;DHT22;26989;45.524;10.938;2022-08-20T07:17:41;24.90;99.90
41256;DHT22;26989;45.524;10.938;2022-08-20T07:20:11;24.70;99.90
41256;DHT22;26989;45.524;10.938;2022-08-20T07:22:39;24.70;99.90
41256;DHT22;26989;45.524;10.938;2022-08-20T07:25:09;24.60;99.90
41256;DHT22;26989;45.524;10.938;2022-08-20T07:27:36;24.40;99.90
41256;DHT22;26989;45.524;10.938;2022-08-20T07:30:04;24.10;99.90
41256;DHT22;26989;45.524;10.938;2022-08-20T07:32:51;23.80;99.90
41256;DHT22;26989;45.524;10.938;2022-08-20T07:35:19;23.60;99.90
41256;DHT22;26989;45.524;10.938;2022-08-20T07:37:48;23.50;99.90
41256;DHT22;26989;45.524;10.938;2022-08-20T07:40:22;23.60;99.90
41256;DHT22;26989;45.524;10.938;2022-08-20T07:42:53;23.80;99.90
41256;DHT22;26989;45.524;10.938;2022-08-20T07:45:20;23.90;99.90
41256;DHT22;26989;45.524;10.938;2022-08-20T07:47:48;23.90;99.90
41256;DHT22;26989;45.524;10.938;2022-08-20T07:50:17;23.90;99.90
41256;DHT22;26989;45.524;10.938;2022-08-20T07:52:46;24.00;99.90
41256;DHT22;26989;45.524;10.938;2022-08-20T07:55:14;24.10;99.90
41256;DHT22;26989;45.524;10.938;2022-08-20T07:57:47;24.20;99.90
41256;DHT22;26989;45.524;10.938;2022-08-20T08:00:16;24.20;99.90
41256;DHT22;26989;45.524;10.938;2022-08-20T08:02:43;24.40;99.90
41256;DHT22;26989;45.524;10.938;2022-08-20T08:05:10;24.50;99.90
41256;DHT22;26989;45.524;10.938;2022-08-20T08:10:25;24.70;99.90
41256;DHT22;26989;45.524;10.938;2022-08-20T08:12:55;24.70;99.90
41256;DHT22;26989;45.524;10.938;2022-08-20T08:15:26;24.90;99.90
41256;DHT22;26989;45.524;10.938;2022-08-20T08:18:01;25.00;99.90
41256;DHT22;26989;45.524;10.938;2022-08-20T08:20:29;25.20;99.90
41256;DHT22;26989;45.524;10.938;2022-08-20T08:22:56;25.50;99.90
41256;DHT22;26989;45.524;10.938;2022-08-20T08:25:27;25.80;99.90
41256;DHT22;26989;45.524;10.938;2022-08-20T08:27:54;25.90;99.90
41256;DHT22;26989;45.524;10.938;2022-08-20T08:30:21;26.10;99.90
41256;DHT22;26989;45.524;10.938;2022-08-20T08:32:48;26.40;99.90
41256;DHT22;26989;45.524;10.938;2022-08-20T08:35:36;26.80;99.90
41256;DHT22;26989;45.524;10.938;2022-08-20T08:38:07;27.00;99.90
41256;DHT22;26989;45.524;10.938;2022-08-20T08:40:39;27.40;99.90
41256;DHT22;26989;45.524;10.938;2022-08-20T08:43:07;27.60;99.90
41256;DHT22;26989;45.524;10.938;2022-08-20T08:45:41;27.50;99.90
41256;DHT22;26989;45.524;10.938;2022-08-20T08:48:17;27.60;99.90
41256;DHT22;26989;45.524;10.938;2022-08-20T08:50:49;27.80;98.70
41256;DHT22;26989;45.524;10.938;2022-08-20T08:53:25;27.90;98.90
41256;DHT22;26989;45.524;10.938;2022-08-20T08:55:53;27.80;99.00
41256;DHT22;26989;45.524;10.938;2022-08-20T08:58:19;27.60;99.90
41256;DHT22;26989;45.524;10.938;2022-08-20T09:00:46;27.70;99.70
41256;DHT22;26989;45.524;10.938;2022-08-20T09:03:30;27.90;99.50
41256;DHT22;26989;45.524;10.938;2022-08-20T09:05:59;27.80;99.20
41256;DHT22;26989;45.524;10.938;2022-08-20T09:08:49;27.70;99.20
41256;DHT22;26989;45.524;10.938;2022-08-20T09:11:19;27.60;98.90
41256;DHT22;26989;45.524;10.938;2022-08-20T09:13:47;27.60;99.40
41256;DHT22;26989;45.524;10.938;2022-08-20T09:16:14;27.50;98.70
41256;DHT22;26989;45.524;10.938;2022-08-20T09:18:41;27.30;99.20
41256;DHT22;26989;45.524;10.938;2022-08-20T09:21:08;27.30;99.30
41256;DHT22;26989;45.524;10.938;2022-08-20T09:23:36;27.40;99.90
41256;DHT22;26989;45.524;10.938;2022-08-20T09:26:03;27.40;99.90
41256;DHT22;26989;45.524;10.938;2022-08-20T09:28:30;27.20;99.90
41256;DHT22;26989;45.524;10.938;2022-08-20T09:31:01;27.10;99.90
41256;DHT22;26989;45.524;10.938;2022-08-20T09:33:30;27.20;99.90
41256;DHT22;26989;45.524;10.938;2022-08-20T09:35:56;27.30;99.90
41256;DHT22;26989;45.524;10.938;2022-08-20T09:38:23;27.20;99.90
41256;DHT22;26989;45.524;10.938;2022-08-20T09:40:50;27.20;98.40
41256;DHT22;26989;45.524;10.938;2022-08-20T09:43:17;27.00;99.70
41256;DHT22;26989;45.524;10.938;2022-08-20T09:45:44;26.90;99.80
41256;DHT22;26989;45.524;10.938;2022-08-20T09:48:11;26.80;99.00
41256;DHT22;26989;45.524;10.938;2022-08-20T09:50:43;26.70;99.90
41256;DHT22;26989;45.524;10.938;2022-08-20T09:53:11;26.50;99.90
41256;DHT22;26989;45.524;10.938;2022-08-20T09:55:41;26.40;99.90
41256;DHT22;26989;45.524;10.938;2022-08-20T10:00:55;26.40;99.90
41256;DHT22;26989;45.524;10.938;2022-08-20T10:03:22;26.40;99.90
41256;DHT22;26989;45.524;10.938;2022-08-20T10:05:49;26.50;99.90
41256;DHT22;26989;45.524;10.938;2022-08-20T10:08:16;26.70;98.90
41256;DHT22;26989;45.524;10.938;2022-08-20T10:10:43;26.60;99.80
41256;DHT22;26989;45.524;10.938;2022-08-20T10:13:10;26.60;99.40
41256;DHT22;26989;45.524;10.938;2022-08-20T10:15:41;26.70;98.50
41256;DHT22;26989;45.524;10.938;2022-08-20T10:18:08;26.80;98.60
41256;DHT22;26989;45.524;10.938;2022-08-20T10:20:38;26.90;98.80
41256;DHT22;26989;45.524;10.938;2022-08-20T10:23:05;26.80;99.00
41256;DHT22;26989;45.524;10.938;2022-08-20T10:25:32;26.80;97.20
41256;DHT22;26989;45.524;10.938;2022-08-20T10:28:02;26.80;97.20
41256;DHT22;26989;45.524;10.938;2022-08-20T10:30:29;26.90;97.50
41256;DHT22;26989;45.524;10.938;2022-08-20T10:32:55;26.90;96.80
41256;DHT22;26989;45.524;10.938;2022-08-20T10:35:22;27.00;96.80
41256;DHT22;26989;45.524;10.938;2022-08-20T10:37:49;27.20;96.50
41256;DHT22;26989;45.524;10.938;2022-08-20T10:40:16;27.40;96.70
41256;DHT22;26989;45.524;10.938;2022-08-20T10:42:43;27.50;96.40
41256;DHT22;26989;45.524;10.938;2022-08-20T10:45:13;27.50;96.70
41256;DHT22;26989;45.524;10.938;2022-08-20T10:47:41;27.50;96.20
41256;DHT22;26989;45.524;10.938;2022-08-20T10:50:12;27.50;96.40
41256;DHT22;26989;45.524;10.938;2022-08-20T10:52:39;27.50;95.80
41256;DHT22;26989;45.524;10.938;2022-08-20T10:55:07;27.50;96.40
41256;DHT22;26989;45.524;10.938;2022-08-20T10:57:34;27.70;95.20
41256;DHT22;26989;45.524;10.938;2022-08-20T11:00:04;28.00;94.90
41256;DHT22;26989;45.524;10.938;2022-08-20T11:02:32;28.00;94.90
41256;DHT22;26989;45.524;10.938;2022-08-20T11:04:59;27.90;95.50
41256;DHT22;26989;45.524;10.938;2022-08-20T11:07:31;27.80;96.00
41256;DHT22;26989;45.524;10.938;2022-08-20T11:10:19;27.90;94.40
41256;DHT22;26989;45.524;10.938;2022-08-20T11:12:46;27.90;94.10
41256;DHT22;26989;45.524;10.938;2022-08-20T11:15:14;27.80;93.30
41256;DHT22;26989;45.524;10.938;2022-08-20T11:17:42;27.90;93.80
41256;DHT22;26989;45.524;10.938;2022-08-20T11:20:12;27.90;94.50
41256;DHT22;26989;45.524;10.938;2022-08-20T11:22:40;27.80;95.00
41256;DHT22;26989;45.524;10.938;2022-08-20T11:25:07;27.90;94.50
41256;DHT22;26989;45.524;10.938;2022-08-20T11:27:38;28.00;94.70
41256;DHT22;26989;45.524;10.938;2022-08-20T11:30:08;28.00;94.60
41256;DHT22;26989;45.524;10.938;2022-08-20T11:32:36;28.10;94.50
41256;DHT22;26989;45.524;10.938;2022-08-20T11:35:04;28.10;93.80
41256;DHT22;26989;45.524;10.938;2022-08-20T11:37:52;28.10;93.40
41256;DHT22;26989;45.524;10.938;2022-08-20T11:40:19;28.20;93.20
41256;DHT22;26989;45.524;10.938;2022-08-20T11:42:46;28.10;92.80
41256;DHT22;26989;45.524;10.938;2022-08-20T11:45:33;28.10;93.10
41256;DHT22;26989;45.524;10.938;2022-08-20T11:48:04;28.00;93.20
41256;DHT22;26989;45.524;10.938;2022-08-20T11:50:31;27.90;92.70
41256;DHT22;26989;45.524;10.938;2022-08-20T11:52:58;28.00;93.50
41256;DHT22;26989;45.524;10.938;2022-08-20T11:55:27;28.00;92.50
41256;DHT22;26989;45.524;10.938;2022-08-20T11:57:57;28.40;91.40
41256;DHT22;26989;45.524;10.938;2022-08-20T12:00:27;28.50;92.10
41256;DHT22;26989;45.524;10.938;2022-08-20T12:02:58;28.50;91.90
41256;DHT22;26989;45.524;10.938;2022-08-20T12:05:26;28.70;91.60
41256;DHT22;26989;45.524;10.938;2022-08-20T12:07:56;28.70;91.40
41256;DHT22;26989;45.524;10.938;2022-08-20T12:10:23;28.70;92.80
41256;DHT22;26989;45.524;10.938;2022-08-20T12:12:52;28.80;92.00
41256;DHT22;26989;45.524;10.938;2022-08-20T12:15:20;29.00;92.10
41256;DHT22;26989;45.524;10.938;2022-08-20T12:17:47;28.90;91.90
41256;DHT22;26989;45.524;10.938;2022-08-20T12:20:14;29.00;91.30
41256;DHT22;26989;45.524;10.938;2022-08-20T12:22:41;29.00;91.20
41256;DHT22;26989;45.524;10.938;2022-08-20T12:25:10;28.90;90.80
41256;DHT22;26989;45.524;10.938;2022-08-20T12:27:37;29.20;90.10
41256;DHT22;26989;45.524;10.938;2022-08-20T12:30:09;29.40;88.80
41256;DHT22;26989;45.524;10.938;2022-08-20T12:32:37;29.80;89.10
41256;DHT22;26989;45.524;10.938;2022-08-20T12:35:05;30.00;90.00
41256;DHT22;26989;45.524;10.938;2022-08-20T12:37:32;29.90;90.30
41256;DHT22;26989;45.524;10.938;2022-08-20T12:40:01;29.80;90.60
41256;DHT22;26989;45.524;10.938;2022-08-20T12:42:29;29.60;90.70
41256;DHT22;26989;45.524;10.938;2022-08-20T12:44:57;29.60;90.70
41256;DHT22;26989;45.524;10.938;2022-08-20T12:47:29;29.60;90.50
41256;DHT22;26989;45.524;10.938;2022-08-20T12:50:00;29.70;90.30
41256;DHT22;26989;45.524;10.938;2022-08-20T12:52:29;29.70;90.20
41256;DHT22;26989;45.524;10.938;2022-08-20T12:54:57;29.80;90.30
41256;DHT22;26989;45.524;10.938;2022-08-20T12:57:35;30.00;90.60
41256;DHT22;26989;45.524;10.938;2022-08-20T13:00:07;30.20;90.80
41256;DHT22;26989;45.524;10.938;2022-08-20T13:02:34;30.20;90.10
41256;DHT22;26989;45.524;10.938;2022-08-20T13:05:01;30.40;90.10
41256;DHT22;26989;45.524;10.938;2022-08-20T13:07:31;30.80;88.50
41256;DHT22;26989;45.524;10.938;2022-08-20T13:09:59;30.60;89.80
41256;DHT22;26989;45.524;10.938;2022-08-20T13:12:26;30.10;90.20
41256;DHT22;26989;45.524;10.938;2022-08-20T13:14:53;30.30;90.10
41256;DHT22;26989;45.524;10.938;2022-08-20T13:17:20;30.50;90.30
41256;DHT22;26989;45.524;10.938;2022-08-20T13:20:08;30.60;90.30
41256;DHT22;26989;45.524;10.938;2022-08-20T13:22:35;30.40;90.90
41256;DHT22;26989;45.524;10.938;2022-08-20T13:25:04;30.30;90.30
41256;DHT22;26989;45.524;10.938;2022-08-20T13:27:31;30.30;90.30
41256;DHT22;26989;45.524;10.938;2022-08-20T13:29:58;30.60;89.80
41256;DHT22;26989;45.524;10.938;2022-08-20T13:32:25;30.30;88.90
41256;DHT22;26989;45.524;10.938;2022-08-20T13:34:52;29.90;89.90
41256;DHT22;26989;45.524;10.938;2022-08-20T13:37:24;29.60;90.20
41256;DHT22;26989;45.524;10.938;2022-08-20T13:39:52;30.00;90.30
41256;DHT22;26989;45.524;10.938;2022-08-20T13:42:19;30.50;90.70
41256;DHT22;26989;45.524;10.938;2022-08-20T13:44:47;30.70;90.10
41256;DHT22;26989;45.524;10.938;2022-08-20T13:49:48;30.80;89.40
41256;DHT22;26989;45.524;10.938;2022-08-20T13:52:15;30.80;89.70
41256;DHT22;26989;45.524;10.938;2022-08-20T13:54:42;30.80;87.20
41256;DHT22;26989;45.524;10.938;2022-08-20T13:57:15;30.80;85.50
41256;DHT22;26989;45.524;10.938;2022-08-20T13:59:45;31.10;85.40
41256;DHT22;26989;45.524;10.938;2022-08-20T14:02:12;31.10;85.20
41256;DHT22;26989;45.524;10.938;2022-08-20T14:04:40;31.00;83.40
41256;DHT22;26989;45.524;10.938;2022-08-20T14:07:12;31.00;83.50
41256;DHT22;26989;45.524;10.938;2022-08-20T14:09:40;30.90;84.40
41256;DHT22;26989;45.524;10.938;2022-08-20T14:12:08;30.90;84.60
41256;DHT22;26989;45.524;10.938;2022-08-20T14:14:35;31.10;84.10
41256;DHT22;26989;45.524;10.938;2022-08-20T14:17:33;31.20;84.20
41256;DHT22;26989;45.524;10.938;2022-08-20T14:20:12;31.40;82.00
41256;DHT22;26989;45.524;10.938;2022-08-20T14:22:41;31.40;81.10
41256;DHT22;26989;45.524;10.938;2022-08-20T14:25:13;31.30;84.40
41256;DHT22;26989;45.524;10.938;2022-08-20T14:27:41;31.10;84.00
41256;DHT22;26989;45.524;10.938;2022-08-20T14:30:11;31.00;83.50
41256;DHT22;26989;45.524;10.938;2022-08-20T14:32:38;30.90;84.00
41256;DHT22;26989;45.524;10.938;2022-08-20T14:35:06;31.00;84.10
41256;DHT22;26989;45.524;10.938;2022-08-20T14:37:36;31.20;83.00
41256;DHT22;26989;45.524;10.938;2022-08-20T14:40:07;31.30;82.70
41256;DHT22;26989;45.524;10.938;2022-08-20T14:42:34;31.40;81.00
41256;DHT22;26989;45.524;10.938;2022-08-20T14:45:02;31.30;81.50
41256;DHT22;26989;45.524;10.938;2022-08-20T14:47:37;31.10;82.40
41256;DHT22;26989;45.524;10.938;2022-08-20T14:50:08;30.80;82.70
41256;DHT22;26989;45.524;10.938;2022-08-20T14:52:36;30.70;84.60
41256;DHT22;26989;45.524;10.938;2022-08-20T14:55:04;30.30;85.90
41256;DHT22;26989;45.524;10.938;2022-08-20T14:57:32;30.00;87.10
41256;DHT22;26989;45.524;10.938;2022-08-20T14:59:59;29.90;87.50
41256;DHT22;26989;45.524;10.938;2022-08-20T15:02:27;29.60;88.70
41256;DHT22;26989;45.524;10.938;2022-08-20T15:04:54;29.50;88.80
41256;DHT22;26989;45.524;10.938;2022-08-20T15:07:27;29.40;88.30
41256;DHT22;26989;45.524;10.938;2022-08-20T15:09:55;29.30;88.90
41256;DHT22;26989;45.524;10.938;2022-08-20T15:12:23;29.10;89.80
41256;DHT22;26989;45.524;10.938;2022-08-20T15:14:50;29.10;90.00
41256;DHT22;26989;45.524;10.938;2022-08-20T15:17:25;29.30;87.10
41256;DHT22;26989;45.524;10.938;2022-08-20T15:19:53;29.40;88.40
41256;DHT22;26989;45.524;10.938;2022-08-20T15:22:21;29.50;87.30
41256;DHT22;26989;45.524;10.938;2022-08-20T15:24:48;29.60;88.40
41256;DHT22;26989;45.524;10.938;2022-08-20T15:27:24;29.50;86.10
41256;DHT22;26989;45.524;10.938;2022-08-20T15:29:51;29.50;86.50
41256;DHT22;26989;45.524;10.938;2022-08-20T15:32:20;29.50;86.80
41256;DHT22;26989;45.524;10.938;2022-08-20T15:34:47;29.50;86.50
41256;DHT22;26989;45.524;10.938;2022-08-20T15:37:17;29.60;86.80
41256;DHT22;26989;45.524;10.938;2022-08-20T15:39:45;29.50;86.30
41256;DHT22;26989;45.524;10.938;2022-08-20T15:42:13;29.60;86.80
41256;DHT22;26989;45.524;10.938;2022-08-20T15:44:41;29.60;86.70
41256;DHT22;26989;45.524;10.938;2022-08-20T15:49:54;30.20;86.80
41256;DHT22;26989;45.524;10.938;2022-08-20T15:52:23;30.30;85.80